EVRA/RIX METAR and TAF weather

Enter ICAO airport designator
Station Type Date Time Source
EVRA METAR 2023/02/06 19:50 UTC NOAA

EVRA 061950Z 32005KT 280V360 9999 OVC007 01/M00 Q1035 NOSIG


Station Type Date Time Source
EVRA Decoded METAR 2023/02/06 19:50 UTC NOAA

Riga International Airport, Latvia (EVRA) 56-55N 023-58E
Feb 06, 2023 - 02:50 PM EST / 2023.02.06 1950 UTC
Wind: from the NW (320 degrees) at 6 MPH (5 KT) (direction variable):0
Visibility: greater than 7 mile(s):0
Sky conditions: overcast
Temperature: 33 F (1 C)
Windchill: 26 F (-3 C):1
Dew Point: 32 F (0 C)
Relative Humidity: 93%
Pressure (altimeter): 30.56 in. Hg (1035 hPa)
ob: EVRA 061950Z 32005KT 280V360 9999 OVC007 01/M00 Q1035 NOSIG
cycle: 20

Station Type Date Time Source
EVRA TAF 2023/02/06 21:03 UTC NOAA

TAF TAF EVRA 062001Z 0621/0721 32007KT 9999 OVC007
TEMPO 0621/0708 3000 BR BKN004 PROB40
TEMPO 0702/0709 0700 FZFG VV001
BECMG 0709/0711 18010KT OVC015
TEMPO 0711/0721 BKN012

Example: see airport list